| time (UTC) | temp F | wind direction | speed knots | gust knots | rain 1hr in | rain 24hr in | rain mn in | humidity % | barometer mb |
| 20260505140616 | 40 | 356 | 3.5 | 5.2 | 0.00 | 0.00 | 0.00 | 64 | 1020.1 |
| 20260505140113 | 38 | 340 | 6.1 | 7.0 | 0.00 | 0.00 | 0.00 | 67 | 1020.3 |
| 20260505125030 | 34 | 330 | 5.2 | 6.1 | 0.00 | 0.00 | 0.00 | 77 | 1019.5 |
| 20260505124526 | 34 | 348 | 6.1 | 6.1 | 0.00 | 0.00 | 0.00 | 77 | 1019.3 |
| 20260505124022 | 34 | 350 | 6.1 | 7.0 | 0.00 | 0.00 | 0.00 | 77 | 1019.3 |
| 20260505123519 | 33 | 341 | 6.1 | 7.0 | 0.00 | 0.00 | 0.00 | 78 | 1019.2 |
| 20260505123015 | 33 | 16 | 5.2 | 6.1 | 0.00 | 0.00 | 0.00 | 78 | 1019.2 |
| 20260505122513 | 33 | 10 | 5.2 | 6.1 | 0.00 | 0.00 | 0.00 | 78 | 1019.2 |
| 20260505122009 | 33 | 357 | 5.2 | 6.1 | 0.00 | 0.00 | 0.00 | 79 | 1019.2 |
| 20260505121506 | 33 | 350 | 4.3 | 6.1 | 0.00 | 0.00 | 0.00 | 79 | 1019.3 |
| 20260505121002 | 32 | 4 | 4.3 | 5.2 | 0.00 | 0.00 | 0.00 | 79 | 1019.3 |
| 20260505120459 | 32 | 6 | 3.5 | 3.5 | 0.00 | 0.00 | 0.00 | 78 | 1019.2 |
| 20260505115958 | 33 | 358 | 2.6 | 3.5 | 0.00 | 0.00 | 0.00 | 77 | 1019.3 |
| 20260505115454 | 33 | 359 | 3.5 | 5.2 | 0.00 | 0.00 | 0.00 | 77 | 1019.2 |
| 20260505114952 | 33 | 12 | 3.5 | 5.2 | 0.00 | 0.00 | 0.00 | 77 | 1019.1 |
| 20260505114448 | 33 | 1 | 4.3 | 6.1 | 0.00 | 0.00 | 0.00 | 76 | 1018.7 |
| 20260505113945 | 34 | 351 | 5.2 | 6.1 | 0.00 | 0.00 | 0.00 | 75 | 1019.1 |
| 20260505113441 | 34 | 334 | 3.5 | 3.5 | 0.00 | 0.00 | 0.00 | 75 | 1019.1 |
| 20260505112937 | 35 | 347 | 3.5 | 5.2 | 0.00 | 0.00 | 0.00 | 73 | 1019.1 |
| 20260505112435 | 35 | 9 | 4.3 | 5.2 | 0.00 | 0.00 | 0.00 | 72 | 1019.2 |
| 20260505111931 | 35 | 2 | 5.2 | 7.0 | 0.00 | 0.00 | 0.00 | 71 | 1019.0 |
| 20260505111426 | 35 | 351 | 5.2 | 5.2 | 0.00 | 0.00 | 0.00 | 70 | 1019.0 |
| 20260505110922 | 36 | 0 | 5.2 | 7.0 | 0.00 | 0.00 | 0.00 | 70 | 1018.7 |
| 20260505110419 | 36 | 3 | 7.0 | 7.8 | 0.00 | 0.00 | 0.00 | 69 | 1018.8 |
| 20260505101850 | 38 | 5 | 7.8 | 9.6 | 0.00 | 0.00 | 0.00 | 60 | 1019.0 |
| 20260505101345 | 38 | 345 | 7.0 | 8.7 | 0.00 | 0.00 | 0.00 | 60 | 1018.7 |
| 20260505100841 | 38 | 4 | 6.1 | 7.8 | 0.00 | 0.00 | 0.00 | 58 | 1018.7 |
| 20260505100338 | 39 | 9 | 4.3 | 6.1 | 0.00 | 0.00 | 0.00 | 58 | 1018.5 |
| 20260505095833 | 39 | 3 | 4.3 | 6.1 | 0.00 | 0.00 | 0.00 | 58 | 1018.8 |
| 20260505095331 | 39 | 357 | 7.8 | 8.7 | 0.00 | 0.00 | 0.00 | 58 | 1018.6 |
| 20260505094827 | 39 | 341 | 7.0 | 7.8 | 0.00 | 0.00 | 0.00 | 59 | 1018.4 |
| 20260505094324 | 39 | 6 | 5.2 | 7.0 | 0.00 | 0.00 | 0.00 | 59 | 1018.6 |
| 20260505093819 | 39 | 348 | 4.3 | 6.1 | 0.00 | 0.00 | 0.00 | 58 | 1018.5 |
| 20260505093318 | 39 | 334 | 5.2 | 7.0 | 0.00 | 0.00 | 0.00 | 58 | 1018.3 |
| 20260505092814 | 39 | 4 | 7.0 | 8.7 | 0.00 | 0.00 | 0.00 | 58 | 1018.6 |
| 20260505092313 | 39 | 23 | 7.0 | 8.7 | 0.00 | 0.00 | 0.00 | 57 | 1018.6 |
| 20260505091810 | 39 | 33 | 3.5 | 6.1 | 0.00 | 0.00 | 0.00 | 56 | 1018.3 |
| 20260505091308 | 39 | 2 | 6.1 | 7.8 | 0.00 | 0.00 | 0.00 | 55 | 1018.6 |
| 20260505090805 | 39 | 358 | 3.5 | 5.2 | 0.00 | 0.00 | 0.00 | 55 | 1018.5 |
| 20260505090303 | 39 | 19 | 3.5 | 3.5 | 0.00 | 0.00 | 0.00 | 55 | 1018.2 |
| 20260505085800 | 39 | 11 | 3.5 | 3.5 | 0.00 | 0.00 | 0.00 | 56 | 1018.4 |
| 20260505085258 | 39 | 14 | 1.7 | 1.7 | 0.00 | 0.00 | 0.00 | 57 | 1018.3 |
| 20260505084756 | 39 | 349 | 1.7 | 1.7 | 0.00 | 0.00 | 0.00 | 57 | 1018.3 |
| 20260505084255 | 39 | 336 | 2.6 | 2.6 | 0.00 | 0.00 | 0.00 | 56 | 1018.4 |
| 20260505083751 | 39 | 340 | 3.5 | 3.5 | 0.00 | 0.00 | 0.00 | 56 | 1018.3 |
| 20260505083248 | 39 | 328 | 1.7 | 2.6 | 0.00 | 0.00 | 0.00 | 55 | 1018.2 |
| 20260505082744 | 39 | 342 | 2.6 | 2.6 | 0.00 | 0.00 | 0.00 | 56 | 1018.3 |
| 20260505082241 | 40 | 1 | 3.5 | 3.5 | 0.00 | 0.00 | 0.00 | 55 | 1018.3 |
| 20260505081737 | 40 | 8 | 3.5 | 5.2 | 0.00 | 0.00 | 0.00 | 55 | 1018.4 |
| 20260505081235 | 39 | 359 | 3.5 | 3.5 | 0.00 | 0.00 | 0.00 | 55 | 1018.2 |
| 20260505080731 | 39 | 11 | 2.6 | 2.6 | 0.00 | 0.00 | 0.00 | 55 | 1018.3 |
| 20260505080226 | 40 | 343 | 3.5 | 3.5 | 0.00 | 0.00 | 0.00 | 54 | 1018.3 |
| 20260505075722 | 40 | 346 | 4.3 | 5.2 | 0.00 | 0.00 | 0.00 | 54 | 1018.4 |
| 20260505075220 | 40 | 340 | 3.5 | 3.5 | 0.00 | 0.00 | 0.00 | 54 | 1018.3 |
| 20260505074717 | 40 | 348 | 2.6 | 2.6 | 0.00 | 0.00 | 0.00 | 54 | 1018.2 |
| 20260505074214 | 40 | 3 | 3.5 | 3.5 | 0.00 | 0.00 | 0.00 | 54 | 1018.2 |
| 20260505073712 | 40 | 11 | 2.6 | 2.6 | 0.00 | 0.00 | 0.00 | 53 | 1018.2 |
| 20260505073210 | 40 | 0 | 3.5 | 5.2 | 0.00 | 0.00 | 0.00 | 53 | 1018.2 |
| 20260505072705 | 40 | 9 | 5.2 | 6.1 | 0.00 | 0.00 | 0.00 | 53 | 1018.0 |
| 20260505072202 | 41 | 340 | 5.2 | 6.1 | 0.00 | 0.00 | 0.00 | 53 | 1018.1 |
| 20260505071657 | 41 | 359 | 7.0 | 7.8 | 0.00 | 0.00 | 0.00 | 53 | 1018.2 |
| 20260505071155 | 41 | 5 | 6.1 | 7.0 | 0.00 | 0.00 | 0.00 | 52 | 1018.2 |
| 20260505070653 | 41 | 7 | 11.3 | 13.0 | 0.00 | 0.00 | 0.00 | 51 | 1018.2 |
| 20260505070149 | 41 | 352 | 7.0 | 8.7 | 0.00 | 0.00 | 0.00 | 50 | 1018.1 |
| 20260505065644 | 41 | 348 | 6.1 | 7.8 | 0.00 | 0.00 | 0.00 | 49 | 1018.3 |
| 20260505065142 | 41 | 27 | 5.2 | 7.0 | 0.00 | 0.00 | 0.00 | 49 | 1018.3 |
| 20260505064638 | 41 | 14 | 5.2 | 7.0 | 0.00 | 0.00 | 0.00 | 48 | 1018.2 |
| 20260505064136 | 41 | 10 | 3.5 | 6.1 | 0.00 | 0.00 | 0.00 | 48 | 1018.1 |
| 20260505063634 | 39 | 18 | 3.5 | 3.5 | 0.00 | 0.00 | 0.00 | 51 | 1018.1 |
| 20260505063130 | 38 | 24 | 3.5 | 3.5 | 0.00 | 0.00 | 0.00 | 52 | 1018.2 |
| 20260505062626 | 36 | 57 | 2.6 | 2.6 | 0.00 | 0.00 | 0.00 | 54 | 1018.0 |
| 20260505062123 | 37 | 5 | 2.6 | 3.5 | 0.00 | 0.00 | 0.00 | 53 | 1018.2 |
| 20260505061620 | 37 | 29 | 1.7 | 5.2 | 0.00 | 0.00 | 0.00 | 52 | 1018.1 |
| 20260505061119 | 38 | 41 | 1.7 | 1.7 | 0.00 | 0.00 | 0.00 | 52 | 1018.0 |
| 20260505060616 | 38 | 57 | 1.7 | 2.6 | 0.00 | 0.00 | 0.00 | 52 | 1018.0 |
| 20260505060113 | 38 | 54 | 3.5 | 3.5 | 0.00 | 0.00 | 0.00 | 52 | 1017.6 |
| 20260505055608 | 36 | 48 | 1.7 | 2.6 | 0.00 | 0.00 | 0.00 | 54 | 1017.8 |
| 20260505055105 | 36 | 271 | 0.0 | 0.0 | 0.00 | 0.00 | 0.00 | 54 | 1017.7 |
| 20260505054602 | 37 | 264 | 0.0 | 0.0 | 0.00 | 0.00 | 0.00 | 53 | 1017.7 |
| 20260505054100 | 38 | 12 | 0.0 | 0.0 | 0.00 | 0.00 | 0.00 | 52 | 1017.7 |
| 20260505053557 | 39 | 8 | 0.0 | 0.0 | 0.00 | 0.00 | 0.00 | 51 | 1017.8 |
| 20260505053053 | 39 | 57 | 1.7 | 1.7 | 0.00 | 0.00 | 0.00 | 51 | 1017.6 |
| 20260505052550 | 38 | 29 | 1.7 | 2.6 | 0.00 | 0.00 | 0.00 | 52 | 1017.6 |
| 20260505052048 | 38 | 85 | 0.0 | 0.0 | 0.00 | 0.00 | 0.00 | 52 | 1017.6 |
| 20260505051544 | 38 | 95 | 1.7 | 1.7 | 0.00 | 0.00 | 0.00 | 52 | 1017.6 |
| 20260505051043 | 39 | 58 | 0.9 | 0.9 | 0.00 | 0.00 | 0.00 | 52 | 1017.6 |
| 20260505050540 | 38 | 66 | 1.7 | 1.7 | 0.00 | 0.00 | 0.00 | 52 | 1017.4 |
| 20260505041508 | 40 | 34 | 3.5 | 5.2 | 0.00 | 0.00 | 0.00 | 49 | 1017.4 |
| 20260505041006 | 40 | 43 | 5.2 | 7.0 | 0.00 | 0.00 | 0.00 | 48 | 1017.4 |
| 20260505040503 | 40 | 27 | 6.1 | 7.0 | 0.00 | 0.00 | 0.00 | 48 | 1017.3 |
| 20260505040000 | 40 | 21 | 4.3 | 6.1 | 0.00 | 0.00 | 0.00 | 48 | 1017.2 |
| 20260505035455 | 40 | 52 | 2.6 | 3.5 | 0.00 | 0.00 | 0.00 | 48 | 1017.1 |
| 20260505034953 | 40 | 63 | 3.5 | 3.5 | 0.00 | 0.00 | 0.00 | 48 | 1017.1 |
| 20260505034449 | 41 | 31 | 3.5 | 5.2 | 0.00 | 0.00 | 0.00 | 47 | 1017.1 |
| 20260505033947 | 41 | 21 | 3.5 | 5.2 | 0.00 | 0.00 | 0.00 | 47 | 1017.1 |
| 20260505033443 | 42 | 21 | 3.5 | 5.2 | 0.00 | 0.00 | 0.00 | 46 | 1017.0 |
| 20260505032942 | 42 | 25 | 4.3 | 7.0 | 0.00 | 0.00 | 0.00 | 46 | 1016.9 |
| 20260505032439 | 42 | 50 | 7.0 | 7.8 | 0.00 | 0.00 | 0.00 | 45 | 1016.5 |
| 20260505031935 | 42 | 65 | 5.2 | 7.0 | 0.00 | 0.00 | 0.00 | 45 | 1016.9 |
| 20260505031432 | 43 | 43 | 3.5 | 5.2 | 0.00 | 0.00 | 0.00 | 44 | 1016.7 |
| 20260505030929 | 44 | 41 | 7.0 | 7.8 | 0.00 | 0.00 | 0.00 | 44 | 1017.0 |
| 20260505030424 | 44 | 33 | 8.7 | 11.3 | 0.00 | 0.00 | 0.00 | 43 | 1016.5 |
| 20260505025920 | 43 | 26 | 7.0 | 8.7 | 0.00 | 0.00 | 0.00 | 43 | 1016.6 |
| 20260505025418 | 44 | 72 | 3.5 | 5.2 | 0.00 | 0.00 | 0.00 | 43 | 1016.4 |
| 20260505024917 | 44 | 43 | 5.2 | 6.1 | 0.00 | 0.00 | 0.00 | 42 | 1016.2 |
| 20260505024414 | 45 | 26 | 7.0 | 9.6 | 0.00 | 0.00 | 0.00 | 41 | 1016.4 |
| 20260505023910 | 46 | 24 | 8.7 | 9.6 | 0.00 | 0.00 | 0.00 | 41 | 1016.2 |
| 20260505023408 | 46 | 18 | 9.6 | 13.0 | 0.00 | 0.00 | 0.00 | 40 | 1016.2 |
| 20260505022905 | 46 | 19 | 10.4 | 13.9 | 0.00 | 0.00 | 0.00 | 39 | 1016.3 |
| 20260505022402 | 47 | 26 | 8.7 | 11.3 | 0.00 | 0.00 | 0.00 | 39 | 1016.1 |
| 20260505021859 | 47 | 66 | 9.6 | 11.3 | 0.00 | 0.00 | 0.00 | 38 | 1015.9 |
| 20260505021355 | 48 | 69 | 9.6 | 12.2 | 0.00 | 0.00 | 0.00 | 36 | 1015.9 |
| 20260505020851 | 49 | 73 | 3.5 | 5.2 | 0.00 | 0.00 | 0.00 | 33 | 1015.7 |
| 20260505020347 | 50 | 16 | 7.8 | 9.6 | 0.00 | 0.00 | 0.00 | 29 | 1015.7 |
| 20260505015844 | 50 | 34 | 9.6 | 11.3 | 0.00 | 0.00 | 0.00 | 29 | 1015.7 |
| 20260505015341 | 50 | 358 | 9.6 | 13.0 | 0.00 | 0.00 | 0.00 | 29 | 1015.7 |
| 20260505014838 | 51 | 345 | 12.2 | 14.8 | 0.00 | 0.00 | 0.00 | 28 | 1016.0 |
| 20260505014335 | 51 | 6 | 9.6 | 13.0 | 0.00 | 0.00 | 0.00 | 27 | 1015.5 |
| 20260505013832 | 51 | 358 | 14.8 | 16.5 | 0.00 | 0.00 | 0.00 | 27 | 1015.5 |
| 20260505013329 | 51 | 32 | 10.4 | 13.0 | 0.00 | 0.00 | 0.00 | 27 | 1015.5 |
| 20260505012827 | 52 | 353 | 7.8 | 11.3 | 0.00 | 0.00 | 0.00 | 26 | 1015.4 |
| 20260505012325 | 52 | 0 | 8.7 | 12.2 | 0.00 | 0.00 | 0.00 | 26 | 1015.2 |
| 20260505011820 | 52 | 0 | 11.3 | 13.0 | 0.00 | 0.00 | 0.00 | 25 | 1015.3 |
| 20260505011318 | 53 | 350 | 6.1 | 7.8 | 0.00 | 0.00 | 0.00 | 24 | 1015.2 |
| 20260505010813 | 53 | 7 | 7.0 | 8.7 | 0.00 | 0.00 | 0.00 | 24 | 1015.5 |
| 20260505010310 | 53 | 12 | 13.9 | 15.6 | 0.00 | 0.00 | 0.00 | 23 | 1015.3 |
| 20260505005806 | 53 | 25 | 9.6 | 9.6 | 0.00 | 0.00 | 0.00 | 23 | 1015.2 |
| 20260505005304 | 53 | 337 | 14.8 | 16.5 | 0.00 | 0.00 | 0.00 | 23 | 1015.1 |
| 20260505004800 | 53 | 15 | 13.0 | 13.9 | 0.00 | 0.00 | 0.00 | 23 | 1015.2 |
| 20260505004256 | 53 | 344 | 9.6 | 13.0 | 0.00 | 0.00 | 0.00 | 24 | 1015.3 |
| 20260505003754 | 54 | 22 | 8.7 | 12.2 | 0.00 | 0.00 | 0.00 | 23 | 1015.2 |
| 20260505003251 | 54 | 326 | 12.2 | 15.6 | 0.00 | 0.00 | 0.00 | 23 | 1015.2 |
| 20260505002747 | 54 | 331 | 11.3 | 12.2 | 0.00 | 0.00 | 0.00 | 22 | 1015.1 |
| 20260505002245 | 54 | 344 | 13.9 | 15.6 | 0.00 | 0.00 | 0.00 | 22 | 1015.2 |
| 20260505001742 | 53 | 358 | 11.3 | 14.8 | 0.00 | 0.00 | 0.00 | 23 | 1015.3 |
| 20260505001240 | 55 | 334 | 13.9 | 16.5 | 0.00 | 0.00 | 0.00 | 23 | 1015.1 |
| 20260505000737 | 54 | 340 | 13.9 | 14.8 | 0.00 | 0.00 | 0.00 | 22 | 1015.3 |
| 20260505000235 | 55 | 358 | 13.0 | 18.2 | 0.00 | 0.00 | 0.00 | 23 | 1015.3 |
| 20260504235731 | 55 | 20 | 14.8 | 18.2 | 0.00 | 0.00 | 0.00 | 22 | 1015.2 |
| 20260504235227 | 54 | 299 | 13.0 | 15.6 | 0.00 | 0.00 | 0.00 | 23 | 1015.0 |
| 20260504234725 | 55 | 4 | 9.6 | 12.2 | 0.00 | 0.00 | 0.00 | 24 | 1015.1 |
| 20260504234222 | 55 | 346 | 13.0 | 14.8 | 0.00 | 0.00 | 0.00 | 24 | 1015.1 |
| 20260504233718 | 54 | 357 | 14.8 | 19.1 | 0.00 | 0.00 | 0.00 | 24 | 1014.6 |
| 20260504233214 | 54 | 328 | 13.9 | 19.1 | 0.00 | 0.00 | 0.00 | 25 | 1015.2 |
| 20260504232711 | 55 | 350 | 16.5 | 20.9 | 0.00 | 0.00 | 0.00 | 25 | 1015.1 |
| 20260504232208 | 55 | 344 | 13.0 | 15.6 | 0.00 | 0.00 | 0.00 | 25 | 1015.3 |
| 20260504231705 | 54 | 5 | 8.7 | 11.3 | 0.00 | 0.00 | 0.00 | 26 | 1015.1 |
| 20260504231201 | 54 | 348 | 12.2 | 16.5 | 0.00 | 0.00 | 0.00 | 26 | 1015.0 |
| 20260504230657 | 55 | 358 | 19.1 | 23.5 | 0.00 | 0.00 | 0.00 | 24 | 1015.0 |
| 20260504230156 | 55 | 357 | 13.9 | 16.5 | 0.00 | 0.00 | 0.00 | 25 | 1015.2 |
| 20260504225654 | 55 | 351 | 16.5 | 19.1 | 0.00 | 0.00 | 0.00 | 25 | 1015.1 |
| 20260504225150 | 55 | 349 | 16.5 | 19.1 | 0.00 | 0.00 | 0.00 | 25 | 1015.1 |
| 20260504224647 | 56 | 11 | 13.0 | 16.5 | 0.00 | 0.00 | 0.00 | 24 | 1015.1 |
| 20260504224144 | 55 | 339 | 14.8 | 19.1 | 0.00 | 0.00 | 0.00 | 25 | 1015.1 |
| 20260504223641 | 55 | 326 | 13.9 | 15.6 | 0.00 | 0.00 | 0.00 | 26 | 1015.3 |
| 20260504223136 | 55 | 328 | 16.5 | 20.0 | 0.00 | 0.00 | 0.00 | 27 | 1015.1 |
| 20260504222634 | 55 | 31 | 8.7 | 13.0 | 0.00 | 0.00 | 0.00 | 27 | 1015.1 |
| 20260504222131 | 55 | 345 | 10.4 | 13.0 | 0.00 | 0.00 | 0.00 | 29 | 1015.4 |
| 20260504221628 | 55 | 20 | 13.0 | 18.2 | 0.00 | 0.00 | 0.00 | 29 | 1015.0 |
| 20260504221125 | 55 | 327 | 12.2 | 13.9 | 0.00 | 0.00 | 0.00 | 29 | 1015.2 |
| 20260504220621 | 55 | 331 | 18.2 | 20.9 | 0.00 | 0.00 | 0.00 | 29 | 1015.2 |
| 20260504220119 | 55 | 335 | 17.4 | 25.2 | 0.00 | 0.00 | 0.00 | 30 | 1015.2 |
| 20260504215615 | 55 | 343 | 11.3 | 13.9 | 0.00 | 0.00 | 0.00 | 30 | 1015.3 |
| 20260504215113 | 55 | 354 | 14.8 | 16.5 | 0.00 | 0.00 | 0.00 | 31 | 1015.4 |
| 20260504214608 | 52 | 330 | 17.4 | 20.9 | 0.00 | 0.00 | 0.00 | 31 | 1015.2 |
| 20260504214105 | 51 | 331 | 9.6 | 13.0 | 0.00 | 0.00 | 0.00 | 33 | 1015.4 |
| 20260504213601 | 52 | 17 | 10.4 | 12.2 | 0.00 | 0.00 | 0.00 | 32 | 1015.6 |
| 20260504213058 | 51 | 21 | 12.2 | 13.9 | 0.00 | 0.00 | 0.00 | 32 | 1015.5 |
| 20260504212554 | 52 | 336 | 11.3 | 14.8 | 0.00 | 0.00 | 0.00 | 31 | 1015.6 |
| 20260504212052 | 53 | 359 | 18.2 | 20.9 | 0.00 | 0.00 | 0.00 | 31 | 1015.7 |
| 20260504211548 | 52 | 22 | 10.4 | 13.9 | 0.00 | 0.00 | 0.00 | 31 | 1015.9 |
| 20260504211045 | 52 | 357 | 13.0 | 14.8 | 0.00 | 0.00 | 0.00 | 32 | 1015.9 |
| 20260504210542 | 53 | 340 | 15.6 | 18.2 | 0.00 | 0.00 | 0.00 | 31 | 1016.1 |
| 20260504210039 | 53 | 8 | 13.9 | 15.6 | 0.00 | 0.00 | 0.00 | 31 | 1015.7 |
| 20260504205537 | 54 | 340 | 14.8 | 19.1 | 0.00 | 0.00 | 0.00 | 31 | 1015.9 |
| 20260504205035 | 53 | 336 | 13.0 | 14.8 | 0.00 | 0.00 | 0.00 | 33 | 1015.9 |
| 20260504204532 | 53 | 343 | 13.9 | 20.9 | 0.00 | 0.00 | 0.00 | 32 | 1015.9 |
| 20260504204032 | 53 | 342 | 10.4 | 12.2 | 0.00 | 0.00 | 0.00 | 33 | 1016.0 |
| 20260504203529 | 53 | 7 | 12.2 | 15.6 | 0.00 | 0.00 | 0.00 | 34 | 1015.9 |
| 20260504203026 | 53 | 0 | 17.4 | 20.0 | 0.00 | 0.00 | 0.00 | 35 | 1015.9 |
| 20260504202521 | 54 | 358 | 11.3 | 14.8 | 0.00 | 0.00 | 0.00 | 34 | 1015.9 |
| 20260504202019 | 53 | 344 | 11.3 | 13.9 | 0.00 | 0.00 | 0.00 | 35 | 1015.7 |
| 20260504201516 | 53 | 336 | 12.2 | 14.8 | 0.00 | 0.00 | 0.00 | 34 | 1015.5 |
| 20260504201014 | 54 | 333 | 14.8 | 20.9 | 0.00 | 0.00 | 0.00 | 32 | 1015.5 |
| 20260504200510 | 54 | 336 | 10.4 | 13.0 | 0.00 | 0.00 | 0.00 | 34 | 1015.6 |
| 20260504200007 | 52 | 3 | 7.8 | 9.6 | 0.00 | 0.00 | 0.00 | 37 | 1015.4 |
| 20260504195503 | 54 | 324 | 9.6 | 9.6 | 0.00 | 0.00 | 0.00 | 33 | 1015.4 |
| 20260504194959 | 53 | 357 | 13.9 | 16.5 | 0.00 | 0.00 | 0.00 | 35 | 1015.6 |
| 20260504194455 | 53 | 341 | 17.4 | 19.1 | 0.00 | 0.00 | 0.00 | 34 | 1015.6 |
| 20260504193951 | 54 | 342 | 15.6 | 19.1 | 0.00 | 0.00 | 0.00 | 34 | 1015.6 |
| 20260504193449 | 53 | 319 | 16.5 | 19.1 | 0.00 | 0.00 | 0.00 | 33 | 1015.5 |
| 20260504192947 | 54 | 340 | 13.0 | 14.8 | 0.00 | 0.00 | 0.00 | 34 | 1015.6 |
| 20260504192444 | 54 | 344 | 15.6 | 18.2 | 0.00 | 0.00 | 0.00 | 33 | 1015.5 |
| 20260504191943 | 55 | 350 | 13.0 | 14.8 | 0.00 | 0.00 | 0.00 | 33 | 1015.6 |
| 20260504191441 | 55 | 0 | 11.3 | 13.9 | 0.00 | 0.00 | 0.00 | 33 | 1015.5 |
| 20260504190935 | 56 | 340 | 14.8 | 18.2 | 0.00 | 0.00 | 0.00 | 33 | 1015.6 |
| 20260504190431 | 56 | 327 | 9.6 | 12.2 | 0.00 | 0.00 | 0.00 | 34 | 1015.7 |
| 20260504185928 | 55 | 346 | 13.0 | 14.8 | 0.00 | 0.00 | 0.00 | 33 | 1015.6 |
| 20260504185425 | 55 | 327 | 20.9 | 22.6 | 0.00 | 0.00 | 0.00 | 32 | 1015.4 |
| 20260504184921 | 55 | 14 | 15.6 | 20.0 | 0.00 | 0.00 | 0.00 | 33 | 1015.4 |
| 20260504184417 | 55 | 348 | 17.4 | 20.0 | 0.00 | 0.00 | 0.00 | 33 | 1015.5 |
| 20260504183913 | 54 | 331 | 14.8 | 15.6 | 0.00 | 0.00 | 0.00 | 34 | 1015.4 |
| 20260504183411 | 56 | 326 | 19.1 | 22.6 | 0.00 | 0.00 | 0.00 | 33 | 1015.3 |
| 20260504182908 | 56 | 331 | 21.7 | 26.1 | 0.00 | 0.00 | 0.00 | 33 | 1015.6 |
| 20260504182405 | 54 | 356 | 11.3 | 18.2 | 0.00 | 0.00 | 0.00 | 35 | 1015.5 |
| 20260504181902 | 54 | 235 | 12.2 | 15.6 | 0.00 | 0.00 | 0.00 | 34 | 1015.4 |
| 20260504181359 | 54 | 343 | 14.8 | 20.0 | 0.00 | 0.00 | 0.00 | 35 | 1015.4 |
| 20260504180858 | 53 | 326 | 15.6 | 20.0 | 0.00 | 0.00 | 0.00 | 35 | 1015.7 |
| 20260504180356 | 54 | 5 | 12.2 | 18.2 | 0.00 | 0.00 | 0.00 | 35 | 1015.6 |
| 20260504175854 | 54 | 4 | 12.2 | 14.8 | 0.00 | 0.00 | 0.00 | 36 | 1015.6 |
| 20260504175350 | 55 | 327 | 13.9 | 15.6 | 0.00 | 0.00 | 0.00 | 35 | 1015.5 |
| 20260504174849 | 53 | 337 | 12.2 | 13.9 | 0.00 | 0.00 | 0.00 | 36 | 1015.7 |
| 20260504174346 | 53 | 351 | 11.3 | 13.9 | 0.00 | 0.00 | 0.00 | 37 | 1015.9 |
| 20260504173843 | 53 | 357 | 13.0 | 14.8 | 0.00 | 0.00 | 0.00 | 38 | 1015.6 |
| 20260504173339 | 54 | 353 | 10.4 | 13.0 | 0.00 | 0.00 | 0.00 | 36 | 1015.9 |
| 20260504172836 | 52 | 343 | 13.0 | 13.9 | 0.00 | 0.00 | 0.00 | 38 | 1015.9 |
| 20260504172333 | 53 | 328 | 10.4 | 14.8 | 0.00 | 0.00 | 0.00 | 38 | 1015.9 |
| 20260504171829 | 53 | 345 | 16.5 | 16.5 | 0.00 | 0.00 | 0.00 | 38 | 1016.0 |
| 20260504171326 | 53 | 328 | 10.4 | 13.0 | 0.00 | 0.00 | 0.00 | 39 | 1015.7 |
| 20260504170824 | 54 | 0 | 12.2 | 14.8 | 0.00 | 0.00 | 0.00 | 40 | 1015.9 |
| 20260504170320 | 52 | 343 | 9.6 | 11.3 | 0.00 | 0.00 | 0.00 | 42 | 1015.6 |
| 20260504160238 | 50 | 319 | 5.2 | 7.0 | 0.00 | 0.00 | 0.00 | 49 | 1015.6 |
| 20260504150704 | 50 | 316 | 5.2 | 7.0 | 0.00 | 0.00 | 0.00 | 51 | 1016.0 |
| 20260504150201 | 50 | 315 | 7.0 | 8.7 | 0.00 | 0.00 | 0.00 | 51 | 1016.1 |